Time;durP1;ratioP1;P1;durP2;ratioP2;P2;SDS_P1;SDS_P2;PMS_P1;PMS_P2;Temp;Humidity;BMP_temperature;BMP_pressure;BME280_temperature;BME280_humidity;BME280_pressure;Samples;Min_cycle;Max_cycle;Signal;HPM_P1;HPM_P2
2024/04/06 00:01:39;;;;;;;7.90;5.40;;;15.30;99.90;;;;;;5009116;28;20473;-49
2024/04/06 00:04:05;;;;;;;6.47;4.72;;;15.30;99.90;;;;;;4995430;28;20046;-48
2024/04/06 00:06:31;;;;;;;8.05;4.90;;;15.30;99.90;;;;;;5006973;28;20046;-47
2024/04/06 00:08:57;;;;;;;6.38;4.82;;;15.30;99.90;;;;;;5011009;28;20059;-50
2024/04/06 00:11:23;;;;;;;8.43;4.43;;;15.30;99.90;;;;;;5001374;28;20422;-48
2024/04/06 00:13:51;;;;;;;6.07;4.63;;;15.30;99.90;;;;;;5015937;28;20044;-44
2024/04/06 00:16:17;;;;;;;7.00;4.97;;;15.30;99.90;;;;;;5004635;28;20043;-47
2024/04/06 00:18:43;;;;;;;5.43;4.53;;;15.20;99.90;;;;;;5007268;28;20060;-51
2024/04/06 00:21:09;;;;;;;5.93;4.13;;;15.20;99.90;;;;;;5010317;28;20046;-43
2024/04/06 00:23:35;;;;;;;7.18;4.88;;;15.20;99.90;;;;;;5013971;28;20084;-46
2024/04/06 00:26:01;;;;;;;7.18;5.00;;;15.20;99.90;;;;;;5005765;28;20050;-47
2024/04/06 00:28:27;;;;;;;7.70;4.70;;;15.20;99.90;;;;;;5006468;28;20102;-46
2024/04/06 00:30:54;;;;;;;7.30;4.57;;;15.20;99.90;;;;;;5010887;28;20353;-45
2024/04/06 00:33:20;;;;;;;7.68;4.82;;;15.10;99.90;;;;;;5011947;28;20060;-43
2024/04/06 00:35:46;;;;;;;9.13;5.05;;;15.10;99.90;;;;;;5004885;28;20051;-45
2024/04/06 00:38:12;;;;;;;5.88;4.60;;;15.10;99.90;;;;;;5015584;28;20458;-45
2024/04/06 00:40:38;;;;;;;6.93;4.72;;;15.10;99.90;;;;;;5012312;28;20041;-45
2024/04/06 00:43:05;;;;;;;8.75;4.68;;;15.10;99.90;;;;;;5011861;28;20122;-48
2024/04/06 00:45:31;;;;;;;6.65;4.78;;;15.10;99.90;;;;;;5013151;28;20041;-45
2024/04/06 00:47:57;;;;;;;8.95;5.05;;;15.10;99.90;;;;;;5013989;28;20046;-46
2024/04/06 00:50:23;;;;;;;8.80;5.13;;;15.10;99.90;;;;;;4989633;28;20460;-43
2024/04/06 00:52:49;;;;;;;7.50;5.10;;;15.20;99.90;;;;;;5008613;28;20451;-46
2024/04/06 00:55:16;;;;;;;7.05;5.05;;;15.20;99.90;;;;;;5005198;28;20047;-47
2024/04/06 00:57:43;;;;;;;7.53;4.80;;;15.20;99.90;;;;;;5013012;28;20054;-46
2024/04/06 01:00:10;;;;;;;7.18;4.65;;;15.20;99.90;;;;;;5010484;28;20046;-47
2024/04/06 01:02:36;;;;;;;7.82;4.68;;;15.20;99.90;;;;;;5015349;28;20436;-45
2024/04/06 01:05:03;;;;;;;7.28;4.95;;;15.20;99.90;;;;;;5009587;28;20050;-46
2024/04/06 01:07:29;;;;;;;7.25;4.22;;;15.10;99.90;;;;;;5014704;28;20063;-48
2024/04/06 01:09:55;;;;;;;6.90;4.50;;;15.10;99.90;;;;;;5009743;28;20061;-47
2024/04/06 01:12:21;;;;;;;6.35;4.30;;;15.10;99.90;;;;;;5010329;28;20410;-46
2024/04/06 01:14:47;;;;;;;7.45;4.30;;;15.00;99.90;;;;;;5009149;28;20042;-47
2024/04/06 01:17:13;;;;;;;8.25;4.80;;;15.00;99.90;;;;;;5011222;28;20526;-45
2024/04/06 01:19:39;;;;;;;6.57;4.57;;;15.00;99.90;;;;;;5011261;28;20112;-42
2024/04/06 01:22:05;;;;;;;6.55;4.78;;;15.00;99.90;;;;;;5011413;28;20042;-46
2024/04/06 01:24:31;;;;;;;7.95;4.85;;;15.00;99.90;;;;;;5008536;28;20347;-44
2024/04/06 01:26:59;;;;;;;8.63;3.97;;;15.00;99.90;;;;;;5010463;28;20050;-48
2024/04/06 01:29:27;;;;;;;6.65;4.35;;;15.00;99.90;;;;;;5005169;28;20050;-46
2024/04/06 01:31:53;;;;;;;6.18;4.25;;;15.00;99.90;;;;;;5009894;28;20469;-45
2024/04/06 01:34:20;;;;;;;6.82;4.45;;;15.00;99.90;;;;;;4999730;28;20062;-45
2024/04/06 01:36:47;;;;;;;6.10;4.30;;;15.00;99.90;;;;;;5013955;28;20043;-47
2024/04/06 01:39:13;;;;;;;8.50;5.30;;;15.00;99.90;;;;;;4994707;28;20078;-46
2024/04/06 01:41:45;;;;;;;6.13;4.28;;;15.00;99.90;;;;;;5006752;28;20050;-44
2024/04/06 01:44:11;;;;;;;7.20;4.63;;;15.00;99.90;;;;;;5001667;28;20355;-44
2024/04/06 01:46:37;;;;;;;8.63;4.75;;;15.00;99.90;;;;;;5076042;28;20072;-45
2024/04/06 01:49:03;;;;;;;6.30;4.50;;;15.00;99.90;;;;;;5001696;28;20053;-45
2024/04/06 01:51:29;;;;;;;6.85;4.80;;;15.00;99.90;;;;;;5012726;28;20056;-46
2024/04/06 01:53:55;;;;;;;6.55;4.60;;;15.10;99.90;;;;;;5003823;28;20054;-45
2024/04/06 01:56:21;;;;;;;7.10;4.75;;;15.10;99.90;;;;;;5004529;28;20415;-42
2024/04/06 01:58:47;;;;;;;8.57;4.80;;;15.10;99.90;;;;;;5007910;28;20105;-45
2024/04/06 02:01:14;;;;;;;11.32;4.78;;;15.10;99.90;;;;;;5022979;28;20067;-47
2024/04/06 02:03:40;;;;;;;9.82;4.88;;;15.10;99.90;;;;;;5015662;28;20541;-45
2024/04/06 02:06:09;;;;;;;6.47;4.72;;;15.10;99.90;;;;;;5009518;28;20399;-46
2024/04/06 02:08:36;;;;;;;6.30;5.10;;;15.10;99.90;;;;;;4999216;28;20070;-47
2024/04/06 02:11:02;;;;;;;6.10;4.47;;;15.10;99.90;;;;;;5004926;28;20046;-45
2024/04/06 02:13:29;;;;;;;6.07;4.68;;;15.10;99.90;;;;;;5008694;28;20526;-46
2024/04/06 02:15:55;;;;;;;7.30;5.03;;;15.10;99.90;;;;;;5012810;28;20346;-42
2024/04/06 02:18:21;;;;;;;6.85;4.30;;;15.10;99.90;;;;;;5004652;28;20047;-42
2024/04/06 02:20:48;;;;;;;6.18;4.05;;;15.10;99.90;;;;;;5006107;28;20139;-47
2024/04/06 02:23:14;;;;;;;6.10;4.35;;;15.10;99.90;;;;;;4997974;28;20038;-45
2024/04/06 02:25:41;;;;;;;6.82;4.55;;;15.10;99.90;;;;;;5015760;28;20050;-44
2024/04/06 02:28:07;;;;;;;7.10;4.40;;;15.10;99.90;;;;;;5005526;28;20049;-44
2024/04/06 02:30:33;;;;;;;6.80;4.70;;;15.10;99.90;;;;;;5007844;28;20403;-44
2024/04/06 02:32:59;;;;;;;5.75;4.30;;;15.10;99.90;;;;;;5012321;28;20058;-48
2024/04/06 02:35:25;;;;;;;6.88;4.40;;;15.10;99.90;;;;;;5004181;28;20050;-48
2024/04/06 02:37:51;;;;;;;6.63;4.65;;;15.10;99.90;;;;;;4998094;28;20051;-45
2024/04/06 02:40:17;;;;;;;8.80;4.90;;;15.10;99.90;;;;;;5009227;28;20042;-46
2024/04/06 02:42:44;;;;;;;6.57;4.35;;;15.10;99.90;;;;;;5018758;28;20037;-46
2024/04/06 02:45:10;;;;;;;9.35;4.80;;;15.10;99.90;;;;;;5009791;28;20050;-49
2024/04/06 02:47:36;;;;;;;7.63;4.65;;;15.10;99.90;;;;;;5016361;28;20055;-45
2024/04/06 02:50:02;;;;;;;9.25;4.70;;;15.10;99.90;;;;;;4999396;28;20045;-44
2024/04/06 02:52:28;;;;;;;7.03;4.07;;;15.10;99.90;;;;;;5008896;28;20046;-48
2024/04/06 02:54:54;;;;;;;6.55;4.32;;;15.10;99.90;;;;;;5012565;28;20148;-49
2024/04/06 02:57:20;;;;;;;4.80;4.25;;;15.10;99.90;;;;;;5000317;28;20125;-41
2024/04/06 02:59:47;;;;;;;5.70;4.28;;;15.00;99.90;;;;;;5021898;28;20119;-45
2024/04/06 03:02:13;;;;;;;6.53;4.28;;;15.00;99.90;;;;;;5002794;28;20047;-51
2024/04/06 03:04:40;;;;;;;4.85;3.90;;;15.00;99.90;;;;;;5019744;28;20053;-45
2024/04/06 03:07:06;;;;;;;6.38;4.00;;;15.00;99.90;;;;;;5001767;28;20346;-46
2024/04/06 03:09:35;;;;;;;7.68;4.32;;;14.90;99.90;;;;;;5016816;28;20624;-43
2024/04/06 03:12:05;;;;;;;7.07;4.25;;;14.90;99.90;;;;;;5007173;28;20052;-48
2024/04/06 03:14:32;;;;;;;6.88;4.55;;;14.80;99.90;;;;;;5012938;28;20057;-44
2024/04/06 03:16:58;;;;;;;7.47;4.22;;;14.80;99.90;;;;;;5013031;28;20194;-44
2024/04/06 03:19:27;;;;;;;6.10;4.55;;;14.70;99.90;;;;;;5088522;27;20061;-46
2024/04/06 03:21:53;;;;;;;6.97;4.80;;;14.60;99.90;;;;;;5030295;28;20052;-44
2024/04/06 03:24:19;;;;;;;5.50;4.20;;;14.60;99.90;;;;;;5008548;28;20087;-48
2024/04/06 03:26:45;;;;;;;7.38;4.68;;;14.50;99.90;;;;;;5098518;27;20036;-49
2024/04/06 03:29:11;;;;;;;5.43;3.60;;;14.50;99.90;;;;;;5006685;28;20049;-45
2024/04/06 03:31:37;;;;;;;8.20;4.40;;;14.50;99.90;;;;;;5015681;28;20038;-49
2024/04/06 03:34:03;;;;;;;6.38;4.30;;;14.50;99.90;;;;;;5004092;28;20399;-46
2024/04/06 03:36:29;;;;;;;5.15;4.35;;;14.50;99.90;;;;;;5011481;28;20047;-48
2024/04/06 03:38:55;;;;;;;6.13;4.22;;;14.50;99.90;;;;;;5011337;28;20549;-46
2024/04/06 03:41:22;;;;;;;5.53;4.47;;;14.40;99.90;;;;;;5001181;28;20042;-46
2024/04/06 03:43:49;;;;;;;5.32;4.18;;;14.40;99.90;;;;;;5008975;28;20028;-49
2024/04/06 03:46:15;;;;;;;5.47;4.28;;;14.30;99.90;;;;;;4998598;28;20462;-48
2024/04/06 03:48:41;;;;;;;5.70;4.30;;;14.30;99.90;;;;;;5010765;28;20092;-47
2024/04/06 03:51:07;;;;;;;7.72;4.03;;;14.30;99.90;;;;;;5006446;28;20119;-43
2024/04/06 03:53:41;;;;;;;4.80;3.70;;;14.30;99.90;;;;;;5008271;28;20069;-47
2024/04/06 03:56:07;;;;;;;6.65;4.07;;;14.30;99.90;;;;;;4993860;28;20057;-41
2024/04/06 03:58:33;;;;;;;5.88;4.15;;;14.30;99.90;;;;;;5006319;28;20422;-48
2024/04/06 04:00:59;;;;;;;8.70;3.67;;;14.30;99.90;;;;;;5011468;28;20105;-47
2024/04/06 04:03:26;;;;;;;4.65;3.72;;;14.20;99.90;;;;;;5008197;28;20054;-45
2024/04/06 04:05:52;;;;;;;7.32;4.57;;;14.20;99.90;;;;;;5014079;28;20058;-47
2024/04/06 04:08:18;;;;;;;5.35;4.60;;;14.20;99.90;;;;;;5009769;28;20050;-44
2024/04/06 04:10:44;;;;;;;6.35;4.20;;;14.20;99.90;;;;;;5011798;28;20503;-43
2024/04/06 04:13:11;;;;;;;5.47;3.60;;;14.20;99.90;;;;;;5009815;28;20046;-47
2024/04/06 04:15:41;;;;;;;6.55;4.18;;;14.20;99.90;;;;;;5015472;28;20049;-46
2024/04/06 04:18:08;;;;;;;6.53;3.97;;;14.20;99.90;;;;;;4997473;28;20042;-47
2024/04/06 04:20:35;;;;;;;5.30;3.92;;;14.20;99.90;;;;;;5018745;28;20046;-48
2024/04/06 04:23:01;;;;;;;6.10;3.80;;;14.20;99.90;;;;;;4999762;28;20060;-50
2024/04/06 04:25:29;;;;;;;6.68;4.20;;;14.20;99.90;;;;;;5014053;28;20111;-48
2024/04/06 04:27:56;;;;;;;6.47;4.35;;;14.10;99.90;;;;;;5000607;28;20058;-48
2024/04/06 04:30:22;;;;;;;6.35;4.78;;;14.10;99.90;;;;;;5012611;28;20513;-44
2024/04/06 04:32:49;;;;;;;7.65;4.85;;;14.10;99.90;;;;;;5007285;28;20168;-48
2024/04/06 04:35:15;;;;;;;5.28;4.60;;;14.10;99.90;;;;;;4994435;28;20038;-48
2024/04/06 04:37:41;;;;;;;6.18;4.85;;;14.00;99.90;;;;;;5012087;28;20102;-48
2024/04/06 04:40:08;;;;;;;9.45;6.63;;;13.90;99.90;;;;;;5008575;28;20057;-44
2024/04/06 04:42:35;;;;;;;6.97;5.45;;;13.90;99.90;;;;;;5016093;28;20039;-48
2024/04/06 04:45:08;;;;;;;6.45;5.20;;;13.80;99.90;;;;;;5008542;28;20079;-46
2024/04/06 04:47:34;;;;;;;7.45;5.43;;;13.70;99.90;;;;;;5014922;28;20046;-46
2024/04/06 04:50:00;;;;;;;7.70;4.65;;;13.70;99.90;;;;;;4998398;28;20057;-44
2024/04/06 04:52:26;;;;;;;6.68;4.40;;;13.60;99.90;;;;;;5008669;28;20050;-47
2024/04/06 04:54:52;;;;;;;6.03;4.35;;;13.60;99.90;;;;;;5005571;28;20139;-49
2024/04/06 04:57:18;;;;;;;7.07;4.18;;;13.60;99.90;;;;;;5004530;28;20298;-48
2024/04/06 04:59:44;;;;;;;5.30;3.90;;;13.50;99.90;;;;;;5013007;28;20086;-47
2024/04/06 05:02:10;;;;;;;5.95;4.10;;;13.50;99.90;;;;;;5003776;28;20507;-49
2024/04/06 05:04:35;;;;;;;6.40;4.40;;;13.50;99.90;;;;;;5019606;28;20231;-46
2024/04/06 05:07:01;;;;;;;6.45;4.13;;;13.50;99.90;;;;;;4999340;28;20050;-48
2024/04/06 05:09:28;;;;;;;6.85;4.82;;;13.50;99.90;;;;;;5004027;28;20121;-50
2024/04/06 05:11:54;;;;;;;6.47;4.70;;;13.50;99.90;;;;;;5006807;28;20051;-47
2024/04/06 05:14:20;;;;;;;7.13;4.93;;;13.50;99.90;;;;;;5011208;28;20141;-47
2024/04/06 05:16:45;;;;;;;5.78;4.22;;;13.50;99.90;;;;;;5010200;28;20044;-47
2024/04/06 05:19:12;;;;;;;6.70;4.10;;;13.60;99.90;;;;;;5010275;28;20438;-47
2024/04/06 05:21:38;;;;;;;6.18;4.00;;;13.60;99.90;;;;;;5008499;28;20042;-43
2024/04/06 05:24:04;;;;;;;6.00;4.22;;;13.60;99.90;;;;;;5007034;28;20106;-47
2024/04/06 05:26:30;;;;;;;5.28;4.07;;;13.60;99.90;;;;;;5008752;28;20043;-47
2024/04/06 05:28:57;;;;;;;5.70;3.83;;;13.70;99.90;;;;;;5015886;28;20058;-45
2024/04/06 05:31:23;;;;;;;5.72;3.80;;;13.70;99.90;;;;;;5002511;28;20050;-47
2024/04/06 05:33:49;;;;;;;6.18;3.85;;;13.80;99.90;;;;;;5009631;28;20446;-42
2024/04/06 05:36:16;;;;;;;6.28;4.22;;;13.80;99.90;;;;;;5005390;28;20039;-47
2024/04/06 05:38:45;;;;;;;6.57;4.43;;;13.90;99.90;;;;;;5010475;28;20054;-47
2024/04/06 05:41:11;;;;;;;6.95;4.35;;;14.00;99.90;;;;;;4998676;28;20046;-49
2024/04/06 05:43:37;;;;;;;5.25;4.32;;;14.00;99.90;;;;;;5009887;28;20035;-45
2024/04/06 05:46:04;;;;;;;6.90;4.47;;;14.10;99.90;;;;;;5000502;28;20046;-46
2024/04/06 05:48:30;;;;;;;6.40;4.32;;;14.10;99.90;;;;;;5006882;28;20038;-47
2024/04/06 05:50:58;;;;;;;6.25;4.32;;;14.20;99.90;;;;;;5005257;28;20052;-50
2024/04/06 05:53:24;;;;;;;6.55;4.75;;;14.30;99.90;;;;;;5085390;28;20226;-50
2024/04/06 05:55:50;;;;;;;6.45;4.15;;;14.30;99.90;;;;;;5006183;28;20378;-49
2024/04/06 05:58:17;;;;;;;5.80;4.00;;;14.40;99.90;;;;;;5031187;28;20042;-46
2024/04/06 06:00:43;;;;;;;6.03;4.35;;;14.50;99.90;;;;;;5025090;28;20050;-44
2024/04/06 06:03:09;;;;;;;6.90;4.15;;;14.50;99.90;;;;;;5005495;28;20050;-47
2024/04/06 06:05:35;;;;;;;6.55;4.50;;;14.60;99.90;;;;;;5024573;28;20036;-50
2024/04/06 06:08:01;;;;;;;8.27;4.70;;;14.70;99.90;;;;;;5024045;28;20046;-44
2024/04/06 06:10:27;;;;;;;5.90;4.55;;;14.80;99.90;;;;;;5001411;28;20045;-46
2024/04/06 06:12:53;;;;;;;8.85;4.78;;;14.80;99.90;;;;;;5009606;28;20459;-46
2024/04/06 06:15:18;;;;;;;7.80;5.05;;;14.90;99.90;;;;;;5001234;28;20050;-45
2024/04/06 06:17:44;;;;;;;6.50;4.10;;;15.00;99.90;;;;;;5011252;28;20047;-46
2024/04/06 06:20:10;;;;;;;7.43;4.60;;;15.10;99.90;;;;;;5025238;28;20036;-44
2024/04/06 06:22:36;;;;;;;10.20;5.35;;;15.20;99.90;;;;;;5019686;28;20463;-49
2024/04/06 06:25:03;;;;;;;7.30;4.78;;;15.20;99.90;;;;;;4998340;28;20383;-49
2024/04/06 06:27:30;;;;;;;8.85;5.55;;;15.30;99.90;;;;;;4999506;28;20126;-49
2024/04/06 06:29:56;;;;;;;8.95;4.70;;;15.40;99.90;;;;;;5006315;28;20503;-44
2024/04/06 06:32:23;;;;;;;5.88;4.72;;;15.40;99.90;;;;;;5003282;28;20065;-44
2024/04/06 06:34:49;;;;;;;8.55;4.80;;;15.50;99.90;;;;;;4998499;28;20052;-43
2024/04/06 06:37:15;;;;;;;8.25;5.25;;;15.60;99.90;;;;;;4998386;28;20388;-43
2024/04/06 06:39:41;;;;;;;8.57;4.88;;;15.60;99.90;;;;;;5013685;28;20054;-48
2024/04/06 06:42:11;;;;;;;10.48;5.03;;;15.70;99.90;;;;;;5019355;28;20095;-45
2024/04/06 06:44:37;;;;;;;12.43;6.00;;;15.80;99.90;;;;;;5011842;28;20046;-48
2024/04/06 06:47:03;;;;;;;11.75;5.78;;;15.90;99.90;;;;;;5002611;28;20050;-45
2024/04/06 06:49:30;;;;;;;8.90;5.47;;;15.90;99.90;;;;;;5088986;28;20104;-48
2024/04/06 06:51:55;;;;;;;9.70;5.95;;;15.90;99.90;;;;;;5010139;28;20469;-44
2024/04/06 06:54:21;;;;;;;8.85;5.18;;;16.00;99.90;;;;;;5021992;28;20512;-47
2024/04/06 06:56:47;;;;;;;8.10;5.45;;;16.10;99.90;;;;;;5012673;28;20535;-50
2024/04/06 06:59:14;;;;;;;8.35;5.15;;;16.30;99.90;;;;;;5015431;28;20478;-49
2024/04/06 07:01:39;;;;;;;10.20;6.10;;;16.40;99.90;;;;;;5002297;28;20070;-51
2024/04/06 07:04:05;;;;;;;9.32;5.85;;;16.50;99.90;;;;;;5003086;28;20049;-50
2024/04/06 07:06:31;;;;;;;11.15;5.05;;;16.50;99.90;;;;;;5006428;28;20058;-48
2024/04/06 07:08:57;;;;;;;10.85;4.97;;;16.60;99.90;;;;;;5011716;28;20131;-45
2024/04/06 07:11:23;;;;;;;7.75;5.28;;;16.70;99.90;;;;;;5001721;28;20054;-46
2024/04/06 07:13:49;;;;;;;7.10;5.13;;;16.80;99.90;;;;;;5009067;28;20412;-44
2024/04/06 07:16:15;;;;;;;7.38;6.05;;;16.90;99.90;;;;;;5003018;28;20172;-48
2024/04/06 07:18:41;;;;;;;9.98;4.90;;;17.00;99.90;;;;;;5009024;28;20039;-46
2024/04/06 07:21:10;;;;;;;8.27;4.95;;;17.00;99.90;;;;;;5011535;28;20042;-49
2024/04/06 07:23:37;;;;;;;7.63;5.22;;;17.10;99.90;;;;;;5018715;28;20050;-43
2024/04/06 07:26:03;;;;;;;8.05;4.75;;;17.20;99.90;;;;;;5010099;28;20046;-43
2024/04/06 07:28:29;;;;;;;7.43;4.38;;;17.30;99.90;;;;;;5094357;28;20050;-48
2024/04/06 07:30:55;;;;;;;7.32;5.18;;;17.50;99.90;;;;;;5011292;28;20065;-44
2024/04/06 07:33:21;;;;;;;6.32;4.68;;;17.50;99.90;;;;;;5006081;28;20113;-42
2024/04/06 07:35:50;;;;;;;9.55;5.00;;;17.60;99.90;;;;;;5013612;28;20046;-48
2024/04/06 07:38:16;;;;;;;6.55;4.70;;;17.70;99.90;;;;;;5011051;28;20115;-46
2024/04/06 07:40:43;;;;;;;8.43;4.43;;;17.90;99.90;;;;;;5000959;28;20694;-49
2024/04/06 07:43:09;;;;;;;7.22;4.70;;;18.00;99.90;;;;;;5008908;28;20137;-44
2024/04/06 07:45:35;;;;;;;8.23;4.95;;;18.10;99.90;;;;;;5036000;28;20505;-47
2024/04/06 07:48:01;;;;;;;7.25;4.78;;;18.20;99.90;;;;;;5008686;28;20414;-49
2024/04/06 07:50:27;;;;;;;8.18;4.47;;;18.30;99.90;;;;;;5005854;28;20152;-46
2024/04/06 07:52:53;;;;;;;8.25;4.60;;;18.40;99.90;;;;;;5004644;28;20052;-43
2024/04/06 07:55:21;;;;;;;10.77;4.90;;;18.60;99.90;;;;;;5001249;28;20046;-47
2024/04/06 07:57:47;;;;;;;6.63;4.60;;;18.60;99.90;;;;;;5008767;28;20044;-43
2024/04/06 08:00:13;;;;;;;7.47;4.57;;;18.70;99.90;;;;;;5010255;28;20038;-45
2024/04/06 08:02:43;;;;;;;6.60;4.30;;;18.80;99.90;;;;;;5017834;28;20046;-46
2024/04/06 08:05:10;;;;;;;7.78;4.35;;;19.00;99.90;;;;;;5010597;28;20184;-42
2024/04/06 08:07:36;;;;;;;6.35;4.38;;;19.10;99.90;;;;;;4996116;28;20046;-48
2024/04/06 08:10:16;;;;;;;6.35;4.80;;;19.20;99.90;;;;;;5006016;28;20053;-48
2024/04/06 08:12:43;;;;;;;7.63;4.35;;;19.20;99.90;;;;;;5012863;28;20050;-46
2024/04/06 08:15:10;;;;;;;5.32;4.20;;;19.30;99.90;;;;;;5000961;28;20119;-45
2024/04/06 08:17:41;;;;;;;5.05;4.22;;;19.40;99.90;;;;;;5013835;28;20046;-46
2024/04/06 08:20:08;;;;;;;8.65;4.20;;;19.50;99.90;;;;;;4993130;28;20046;-48
2024/04/06 08:22:41;;;;;;;5.57;4.10;;;19.60;99.90;;;;;;5005609;28;20047;-48
2024/04/06 08:25:08;;;;;;;6.53;4.32;;;19.80;99.90;;;;;;4996683;28;20049;-46
2024/04/06 08:27:35;;;;;;;6.15;4.70;;;20.10;99.90;;;;;;5008537;28;20035;-50
2024/04/06 08:30:04;;;;;;;9.95;4.38;;;20.30;99.90;;;;;;5003537;28;20149;-48
2024/04/06 08:32:32;;;;;;;8.40;4.20;;;20.30;99.90;;;;;;5002273;28;20183;-47
2024/04/06 08:34:59;;;;;;;7.47;5.10;;;20.40;99.90;;;;;;5004537;28;20157;-46
2024/04/06 08:37:25;;;;;;;6.95;4.50;;;20.70;99.90;;;;;;5025392;28;20096;-45
2024/04/06 08:39:51;;;;;;;5.15;3.97;;;20.70;99.90;;;;;;5011359;28;20075;-48
2024/04/06 08:42:19;;;;;;;5.32;4.13;;;20.70;99.90;;;;;;4997541;28;20038;-48
2024/04/06 08:44:45;;;;;;;6.35;4.30;;;20.90;99.90;;;;;;5009488;28;20045;-49
2024/04/06 08:47:13;;;;;;;5.75;4.45;;;21.00;99.90;;;;;;4997121;28;20049;-46
2024/04/06 08:49:40;;;;;;;6.15;4.50;;;21.20;99.90;;;;;;5002333;28;20054;-45
2024/04/06 08:52:10;;;;;;;9.20;6.82;;;21.30;99.90;;;;;;5005162;28;20503;-49
2024/04/06 08:54:37;;;;;;;4.10;3.70;;;21.50;99.90;;;;;;5015595;28;20323;-50
2024/04/06 08:57:04;;;;;;;5.57;4.18;;;21.60;99.90;;;;;;5003341;28;20054;-46
2024/04/06 08:59:31;;;;;;;8.18;4.25;;;21.60;99.90;;;;;;5006326;28;20050;-48
2024/04/06 09:01:57;;;;;;;4.82;4.32;;;21.80;99.90;;;;;;4998909;28;20450;-47
2024/04/06 09:04:23;;;;;;;6.65;3.80;;;21.90;99.90;;;;;;5016882;28;20051;-51
2024/04/06 09:06:49;;;;;;;4.85;3.70;;;21.90;99.90;;;;;;5004589;28;20131;-50
2024/04/06 09:09:15;;;;;;;4.90;4.40;;;21.70;99.90;;;;;;4995406;28;20038;-50
2024/04/06 09:11:42;;;;;;;6.22;4.15;;;21.70;99.90;;;;;;5007629;28;20138;-44
2024/04/06 09:14:09;;;;;;;7.47;4.47;;;21.70;99.90;;;;;;5005737;28;20498;-44
2024/04/06 09:16:36;;;;;;;6.22;4.40;;;21.80;99.90;;;;;;5007908;28;20046;-52
2024/04/06 09:19:02;;;;;;;6.85;4.50;;;21.90;99.90;;;;;;4999314;28;20095;-49
2024/04/06 09:21:29;;;;;;;5.10;4.60;;;22.00;99.90;;;;;;4996520;28;20077;-47
2024/04/06 09:23:56;;;;;;;4.47;4.07;;;22.10;99.90;;;;;;5008087;28;20053;-49
2024/04/06 09:26:23;;;;;;;4.47;4.07;;;22.00;99.90;;;;;;4992760;28;20042;-52
2024/04/06 09:28:53;;;;;;;5.88;4.43;;;22.20;99.90;;;;;;5086068;28;20057;-49
2024/04/06 09:31:23;;;;;;;4.65;4.25;;;22.20;99.90;;;;;;4996792;28;20034;-51
2024/04/06 09:33:59;;;;;;;4.78;4.28;;;22.50;99.90;;;;;;5083519;27;20559;-51
2024/04/06 09:36:26;;;;;;;6.57;4.47;;;22.60;99.90;;;;;;4987934;28;20051;-48
2024/04/06 09:38:54;;;;;;;6.40;4.50;;;22.70;99.90;;;;;;5008943;28;20444;-48
2024/04/06 09:41:21;;;;;;;5.57;4.63;;;22.90;99.90;;;;;;5006849;28;20046;-47
2024/04/06 09:43:54;;;;;;;4.93;4.43;;;23.20;99.90;;;;;;5075299;28;20051;-46
2024/04/06 09:46:20;;;;;;;5.18;4.68;;;23.50;99.90;;;;;;5003592;28;20039;-49
2024/04/06 09:48:47;;;;;;;5.63;4.80;;;23.70;98.90;;;;;;5007644;28;20046;-50
2024/04/06 09:51:13;;;;;;;5.85;4.60;;;23.70;98.20;;;;;;4998912;28;20547;-47
2024/04/06 09:53:41;;;;;;;6.20;4.85;;;23.80;97.30;;;;;;5009109;28;20053;-48
2024/04/06 09:56:09;;;;;;;5.20;4.60;;;23.60;96.50;;;;;;5003896;28;20057;-47
2024/04/06 09:58:36;;;;;;;6.45;4.75;;;23.80;96.40;;;;;;5011439;28;20066;-51
2024/04/06 10:01:11;;;;;;;5.60;4.82;;;23.90;96.20;;;;;;4996634;28;20073;-49
2024/04/06 10:03:45;;;;;;;5.57;4.63;;;23.70;96.00;;;;;;5010828;28;20046;-48
2024/04/06 10:06:15;;;;;;;5.38;4.88;;;23.60;95.60;;;;;;4999376;28;20391;-49
2024/04/06 10:08:51;;;;;;;7.15;4.75;;;23.70;95.30;;;;;;5003916;28;20268;-45
2024/04/06 10:11:21;;;;;;;6.60;5.00;;;23.70;94.90;;;;;;5007810;28;20049;-48
2024/04/06 10:13:57;;;;;;;5.40;4.90;;;23.60;95.40;;;;;;5007927;28;20058;-50
2024/04/06 10:16:26;;;;;;;5.22;4.72;;;23.70;94.90;;;;;;4996864;28;20473;-50
2024/04/06 10:18:54;;;;;;;4.93;4.53;;;23.90;95.20;;;;;;4998415;28;20040;-47
2024/04/06 10:21:20;;;;;;;5.18;4.68;;;24.00;94.70;;;;;;5005110;28;20042;-49
2024/04/06 10:23:47;;;;;;;6.15;5.10;;;24.20;95.20;;;;;;5004364;28;20040;-45
2024/04/06 10:26:16;;;;;;;5.60;5.10;;;24.20;93.50;;;;;;5001882;28;20062;-47
2024/04/06 10:28:45;;;;;;;7.50;5.35;;;24.40;93.90;;;;;;5008861;28;20047;-48
2024/04/06 10:31:11;;;;;;;5.88;4.72;;;24.60;93.40;;;;;;5000393;28;20654;-47
2024/04/06 10:33:38;;;;;;;5.95;4.80;;;24.70;92.40;;;;;;5007357;28;20469;-48
2024/04/06 10:36:12;;;;;;;6.40;4.88;;;24.70;91.40;;;;;;4999871;28;20061;-50
2024/04/06 10:38:41;;;;;;;4.97;4.57;;;24.90;91.50;;;;;;5005651;28;20050;-47
2024/04/06 10:41:08;;;;;;;5.28;4.70;;;25.10;89.00;;;;;;5001292;28;20050;-48
2024/04/06 10:43:37;;;;;;;5.45;4.82;;;25.00;88.00;;;;;;5009570;28;20054;-50
2024/04/06 10:46:04;;;;;;;5.82;5.07;;;25.10;87.00;;;;;;5005318;28;20035;-50
2024/04/06 10:48:31;;;;;;;6.22;4.80;;;25.10;86.90;;;;;;5004111;28;20153;-44
2024/04/06 10:50:59;;;;;;;5.30;4.90;;;25.10;84.20;;;;;;5042922;28;20046;-44
2024/04/06 10:53:25;;;;;;;5.43;4.55;;;25.30;82.50;;;;;;5088671;28;20053;-43
2024/04/06 10:55:56;;;;;;;5.63;5.03;;;25.50;83.60;;;;;;5011393;28;20447;-46
2024/04/06 10:58:22;;;;;;;5.33;4.83;;;25.50;82.20;;;;;;5003666;28;20043;-42
2024/04/06 11:00:48;;;;;;;5.45;4.90;;;25.70;80.80;;;;;;5010014;28;20785;-49
2024/04/06 11:03:14;;;;;;;5.30;4.80;;;25.70;79.70;;;;;;5006982;28;20538;-49
2024/04/06 11:05:40;;;;;;;5.90;4.65;;;25.80;77.50;;;;;;4999409;28;20087;-47
2024/04/06 11:08:07;;;;;;;5.65;5.13;;;25.80;77.80;;;;;;5013328;28;20083;-50
2024/04/06 11:10:34;;;;;;;5.20;4.70;;;26.00;76.80;;;;;;5012721;28;20050;-47
2024/04/06 11:13:00;;;;;;;4.85;4.45;;;26.00;75.90;;;;;;5011655;28;20045;-45
2024/04/06 11:15:27;;;;;;;5.57;4.30;;;26.20;75.60;;;;;;5005155;28;20050;-50
2024/04/06 11:17:57;;;;;;;5.10;4.55;;;26.30;75.70;;;;;;5030715;28;20523;-49
2024/04/06 11:20:24;;;;;;;5.70;4.95;;;26.30;75.00;;;;;;5010655;28;20042;-47
2024/04/06 11:22:50;;;;;;;5.80;5.30;;;26.30;72.50;;;;;;5012465;28;20031;-48
2024/04/06 11:25:18;;;;;;;4.80;4.40;;;26.60;70.90;;;;;;5016100;28;20087;-52
2024/04/06 11:27:48;;;;;;;5.38;4.43;;;26.70;70.40;;;;;;5003994;28;20048;-48
2024/04/06 11:30:16;;;;;;;4.68;4.28;;;26.60;71.10;;;;;;4998996;28;20054;-46
2024/04/06 11:32:43;;;;;;;6.75;4.90;;;26.80;69.70;;;;;;5001122;28;20054;-48
2024/04/06 11:35:10;;;;;;;9.45;7.65;;;26.80;70.00;;;;;;4990454;28;20430;-45
2024/04/06 11:37:36;;;;;;;5.18;4.78;;;27.00;69.50;;;;;;4995386;28;20042;-49
2024/04/06 11:40:02;;;;;;;8.82;7.53;;;27.30;69.20;;;;;;5007954;28;20053;-46
2024/04/06 11:42:28;;;;;;;6.13;4.97;;;27.60;67.20;;;;;;4998638;28;20038;-48
2024/04/06 11:44:54;;;;;;;6.28;5.22;;;27.70;68.60;;;;;;4990724;28;20068;-47
2024/04/06 11:47:20;;;;;;;5.75;4.70;;;27.80;68.60;;;;;;4994242;28;20459;-50
2024/04/06 11:49:48;;;;;;;5.28;4.80;;;27.80;65.30;;;;;;4994959;28;20555;-49
2024/04/06 11:52:14;;;;;;;8.25;5.03;;;28.10;65.60;;;;;;4991066;28;20569;-48
2024/04/06 11:54:42;;;;;;;5.45;5.05;;;28.00;64.50;;;;;;4997978;28;20149;-44
2024/04/06 11:57:08;;;;;;;5.63;5.10;;;28.30;63.70;;;;;;5016326;28;20073;-50
2024/04/06 11:59:34;;;;;;;7.13;4.85;;;28.00;63.30;;;;;;4992572;28;20096;-48
2024/04/06 12:02:00;;;;;;;5.28;4.88;;;28.40;63.40;;;;;;4997890;28;20062;-46
2024/04/06 12:04:26;;;;;;;5.43;5.00;;;28.10;59.20;;;;;;5074567;28;20039;-45
2024/04/06 12:06:52;;;;;;;5.40;4.90;;;28.10;59.40;;;;;;4994326;28;20065;-48
2024/04/06 12:09:19;;;;;;;5.13;4.72;;;28.40;59.30;;;;;;4995204;28;20049;-49
2024/04/06 12:11:45;;;;;;;4.80;4.40;;;28.50;58.20;;;;;;4994413;28;20104;-48
2024/04/06 12:14:11;;;;;;;5.20;4.70;;;28.80;59.40;;;;;;4986296;28;20417;-46
2024/04/06 12:16:37;;;;;;;5.40;4.90;;;29.10;57.30;;;;;;4990522;28;20042;-50
2024/04/06 12:19:03;;;;;;;5.03;4.63;;;29.00;56.50;;;;;;4993898;28;20045;-50
2024/04/06 12:21:30;;;;;;;5.65;5.25;;;29.10;57.10;;;;;;4988252;28;20372;-49
2024/04/06 12:23:55;;;;;;;5.68;5.18;;;29.40;57.00;;;;;;4995465;28;20060;-49
2024/04/06 12:26:22;;;;;;;5.03;4.55;;;29.80;56.20;;;;;;4993369;28;20051;-47
2024/04/06 12:28:51;;;;;;;5.60;5.10;;;30.10;56.00;;;;;;4999594;28;20629;-49
2024/04/06 12:31:17;;;;;;;5.53;5.03;;;30.60;55.30;;;;;;4986091;28;20042;-48
2024/04/06 12:33:43;;;;;;;6.03;5.45;;;31.50;54.70;;;;;;5012378;28;20037;-50
2024/04/06 12:36:10;;;;;;;5.85;5.13;;;31.40;53.70;;;;;;5085393;28;20050;-48
2024/04/06 12:38:37;;;;;;;5.40;5.00;;;31.60;53.90;;;;;;4991553;28;20046;-50
2024/04/06 12:41:03;;;;;;;5.43;5.03;;;32.10;52.30;;;;;;5021439;28;20046;-52
2024/04/06 12:43:29;;;;;;;5.18;4.78;;;32.60;51.90;;;;;;4988265;28;20064;-49